createdAt,value
2019-01-25T00:01:19.672Z,21.03
2019-01-25T00:03:50.400Z,23.50
2019-01-25T00:06:20.544Z,24.10
2019-01-25T00:08:50.561Z,23.90
2019-01-25T00:11:20.667Z,24.90
2019-01-25T00:13:51.101Z,24.83
2019-01-25T00:16:21.506Z,22.77
2019-01-25T00:18:51.630Z,25.73
2019-01-25T00:21:21.739Z,24.73
2019-01-25T00:23:52.026Z,25.50
2019-01-25T00:26:22.223Z,25.03
2019-01-25T00:28:52.304Z,23.80
2019-01-25T00:31:22.808Z,26.53
2019-01-25T00:33:52.849Z,24.13
2019-01-25T00:36:23.327Z,27.53
2019-01-25T00:38:53.498Z,26.47
2019-01-25T00:41:23.917Z,27.00
2019-01-25T00:43:54.104Z,29.50
2019-01-25T00:46:24.180Z,30.13
2019-01-25T00:48:54.536Z,28.53
2019-01-25T00:51:24.715Z,26.67
2019-01-25T00:53:55.184Z,28.07
2019-01-25T00:56:25.299Z,28.50
2019-01-25T00:58:55.824Z,27.63
2019-01-25T01:01:27.024Z,29.20
2019-01-25T01:03:58.397Z,29.07
2019-01-25T01:06:29.609Z,30.60
2019-01-25T01:08:59.648Z,28.30
2019-01-25T01:11:29.832Z,26.07
2019-01-25T01:13:59.959Z,29.53
2019-01-25T01:16:30.045Z,33.30
2019-01-25T01:19:00.647Z,31.40
2019-01-25T01:21:30.766Z,28.77
2019-01-25T01:24:01.310Z,30.77
2019-01-25T01:26:31.438Z,34.07
2019-01-25T01:29:01.988Z,29.43
2019-01-25T01:31:32.066Z,32.07
2019-01-25T01:34:02.545Z,31.50
2019-01-25T01:36:32.724Z,30.90
2019-01-25T01:39:04.279Z,26.33
2019-01-25T01:41:36.056Z,33.17
2019-01-25T01:44:08.601Z,28.63
2019-01-25T01:46:38.744Z,33.27
2019-01-25T01:49:08.685Z,31.00
2019-01-25T01:51:40.852Z,30.87
2019-01-25T01:54:12.053Z,36.43
2019-01-25T01:56:43.401Z,34.27
2019-01-25T01:59:12.939Z,29.93
2019-01-25T02:01:43.754Z,35.03
2019-01-25T02:04:13.874Z,32.07
2019-01-25T02:06:48.314Z,32.17
2019-01-25T02:09:18.440Z,33.50
2019-01-25T02:11:48.851Z,35.40
2019-01-25T02:14:19.396Z,33.30
2019-01-25T02:16:51.127Z,31.33
2019-01-25T02:19:23.131Z,38.23
2019-01-25T02:21:53.345Z,37.83
2019-01-25T02:24:23.756Z,31.27
2019-01-25T02:26:53.805Z,31.33
2019-01-25T02:29:24.471Z,34.53
2019-01-25T02:31:54.622Z,39.00
2019-01-25T02:34:24.950Z,33.37
2019-01-25T02:36:55.503Z,35.17
2019-01-25T02:39:26.117Z,36.07
2019-01-25T02:41:57.002Z,36.27
2019-01-25T02:44:27.459Z,35.43
2019-01-25T02:46:58.632Z,39.23
2019-01-25T02:49:30.991Z,35.37
2019-01-25T02:52:01.102Z,30.40
2019-01-25T02:54:32.871Z,37.80
2019-01-25T02:57:03.501Z,33.93
2019-01-25T02:59:34.726Z,34.10
2019-01-25T03:02:06.613Z,32.17
2019-01-25T03:04:36.835Z,34.00
2019-01-25T03:07:07.460Z,30.43
2019-01-25T03:09:37.581Z,34.27
2019-01-25T03:12:07.119Z,33.97
2019-01-25T03:14:37.199Z,43.27
2019-01-25T03:17:08.438Z,39.03
2019-01-25T03:19:38.576Z,33.50
2019-01-25T03:22:08.896Z,35.30
2019-01-25T03:24:39.036Z,34.73
2019-01-25T03:27:09.171Z,34.53
2019-01-25T03:29:39.372Z,37.63
2019-01-25T03:32:09.717Z,36.00
2019-01-25T03:34:41.433Z,36.33
2019-01-25T03:37:11.545Z,34.43
2019-01-25T03:39:42.003Z,34.20
2019-01-25T03:42:12.879Z,34.93
2019-01-25T03:44:43.000Z,33.40
2019-01-25T03:47:14.682Z,29.60
2019-01-25T03:49:45.082Z,32.43
2019-01-25T03:52:15.104Z,33.70
2019-01-25T03:54:45.601Z,29.47
2019-01-25T03:57:15.737Z,27.13
2019-01-25T03:59:45.833Z,26.10
2019-01-25T04:02:15.960Z,29.43
2019-01-25T04:04:47.880Z,30.83
2019-01-25T04:07:18.037Z,35.57
2019-01-25T04:09:48.075Z,29.20
2019-01-25T04:12:18.156Z,33.83
2019-01-25T04:14:48.204Z,32.10
2019-01-25T04:17:18.651Z,27.47
2019-01-25T04:19:49.037Z,30.87
2019-01-25T04:22:19.592Z,31.00
2019-01-25T04:24:49.667Z,27.03
2019-01-25T04:27:19.389Z,32.10
2019-01-25T04:29:49.871Z,30.70
2019-01-25T04:32:21.131Z,31.17
2019-01-25T04:34:51.728Z,34.13
2019-01-25T04:37:23.881Z,31.50
2019-01-25T04:39:53.480Z,28.87
2019-01-25T04:42:23.600Z,33.47
2019-01-25T04:44:53.624Z,31.60
2019-01-25T04:47:28.439Z,29.07
2019-01-25T04:49:59.413Z,29.43
2019-01-25T04:52:29.710Z,33.60
2019-01-25T04:55:02.172Z,37.67
2019-01-25T04:57:32.203Z,34.90
2019-01-25T05:00:02.897Z,32.37
2019-01-25T05:02:32.994Z,32.67
2019-01-25T05:05:03.264Z,30.73
2019-01-25T05:07:33.800Z,35.83
2019-01-25T05:10:04.156Z,33.93
2019-01-25T05:12:34.251Z,33.10
2019-01-25T05:15:05.614Z,34.47
2019-01-25T05:17:36.244Z,31.10
2019-01-25T05:20:07.048Z,35.10
2019-01-25T05:22:36.589Z,41.90
2019-01-25T05:25:07.600Z,34.67
2019-01-25T05:27:37.764Z,34.13
2019-01-25T05:30:13.704Z,34.83
2019-01-25T05:32:43.894Z,33.83
2019-01-25T05:35:14.139Z,41.47
2019-01-25T05:37:43.751Z,32.97
2019-01-25T05:40:19.939Z,32.43
2019-01-25T05:42:49.612Z,29.97
2019-01-25T05:45:20.784Z,34.83
2019-01-25T05:47:50.930Z,33.67
2019-01-25T05:50:21.329Z,37.07
2019-01-25T05:52:51.471Z,33.97
2019-01-25T05:55:22.130Z,37.10
2019-01-25T05:57:54.726Z,33.57
2019-01-25T06:00:31.732Z,39.80
2019-01-25T06:03:11.497Z,32.67
2019-01-25T06:05:41.655Z,51.87
2019-01-25T06:08:29.003Z,34.50
2019-01-25T06:11:00.651Z,32.90
2019-01-25T06:13:31.008Z,28.77
2019-01-25T06:16:02.678Z,34.40
2019-01-25T06:18:35.227Z,36.43
2019-01-25T06:21:06.392Z,37.40
2019-01-25T06:23:36.599Z,42.93
2019-01-25T06:26:08.364Z,26.73
2019-01-25T06:28:37.878Z,45.33
2019-01-25T06:31:08.129Z,39.30
2019-01-25T06:33:37.790Z,38.30
2019-01-25T06:36:08.725Z,42.43
2019-01-25T06:38:38.388Z,42.43
2019-01-25T06:41:09.055Z,43.27
2019-01-25T06:43:39.447Z,42.00
2019-01-25T06:46:09.285Z,39.73
2019-01-25T06:48:39.879Z,34.80
2019-01-25T06:51:09.844Z,35.20
2019-01-25T06:53:39.924Z,41.97
2019-01-25T06:56:10.491Z,43.23
2019-01-25T06:59:01.297Z,41.77
2019-01-25T07:01:56.017Z,35.83
2019-01-25T07:04:27.859Z,35.90
2019-01-25T07:06:59.552Z,37.77
2019-01-25T07:09:30.084Z,36.30
2019-01-25T07:12:00.263Z,35.43
2019-01-25T07:14:31.688Z,31.63
2019-01-25T07:17:01.467Z,43.70
2019-01-25T07:19:32.524Z,38.97
2019-01-25T07:22:02.807Z,30.90
2019-01-25T07:24:32.930Z,37.90
2019-01-25T07:27:03.399Z,34.33
2019-01-25T07:29:33.913Z,39.00
2019-01-25T07:32:05.301Z,35.43
2019-01-25T07:34:38.407Z,44.60
2019-01-25T07:37:09.473Z,35.57
2019-01-25T07:39:39.856Z,39.10
2019-01-25T07:42:09.414Z,42.90
2019-01-25T07:44:40.258Z,35.73
2019-01-25T07:47:10.893Z,36.40
2019-01-25T07:49:44.746Z,36.57
2019-01-25T07:52:15.666Z,36.57
2019-01-25T07:54:47.188Z,40.67
2019-01-25T07:57:17.735Z,36.17
2019-01-25T07:59:47.441Z,38.07
2019-01-25T08:02:17.735Z,34.90
2019-01-25T08:04:48.859Z,37.67
2019-01-25T08:07:18.880Z,34.60
2019-01-25T08:09:48.345Z,35.23
2019-01-25T08:12:18.971Z,36.80
2019-01-25T08:14:50.679Z,34.60
2019-01-25T08:17:20.872Z,34.33
2019-01-25T08:19:51.040Z,32.50
2019-01-25T08:22:21.398Z,37.30
2019-01-25T08:24:52.016Z,32.27
2019-01-25T08:27:23.110Z,34.90
2019-01-25T08:30:10.283Z,34.43
2019-01-25T08:32:40.409Z,31.57
2019-01-25T08:35:10.860Z,35.47
2019-01-25T08:37:41.607Z,36.17
2019-01-25T08:40:14.103Z,33.20
2019-01-25T08:42:44.572Z,39.47
2019-01-25T08:45:19.036Z,37.90
2019-01-25T08:47:48.880Z,40.20
2019-01-25T08:50:21.507Z,42.57
2019-01-25T08:52:56.043Z,42.93
2019-01-25T08:55:25.630Z,38.60
2019-01-25T08:57:55.531Z,39.90
2019-01-25T09:00:25.867Z,40.83
2019-01-25T09:02:55.508Z,34.73
2019-01-25T09:05:26.521Z,34.63
2019-01-25T09:07:56.743Z,37.47
2019-01-25T09:10:27.039Z,35.10
2019-01-25T09:12:57.217Z,41.07
2019-01-25T09:15:35.230Z,36.03
2019-01-25T09:18:06.953Z,36.83
2019-01-25T09:20:37.063Z,32.30
2019-01-25T09:23:07.227Z,36.53
2019-01-25T09:25:38.381Z,36.57
2019-01-25T09:28:08.685Z,39.20
2019-01-25T09:30:38.996Z,38.73
2019-01-25T09:33:11.067Z,37.23
2019-01-25T09:35:42.764Z,36.77
2019-01-25T09:38:13.995Z,30.13
2019-01-25T09:40:45.951Z,40.13
2019-01-25T09:43:16.853Z,38.70
2019-01-25T09:45:48.026Z,28.83
2019-01-25T09:48:18.003Z,36.30
2019-01-25T09:50:52.674Z,32.93
2019-01-25T09:53:23.428Z,41.37
2019-01-25T09:55:53.617Z,34.17
2019-01-25T09:58:23.732Z,33.77
2019-01-25T10:01:01.336Z,38.17
2019-01-25T10:03:31.557Z,39.97
2019-01-25T10:06:01.771Z,35.17
2019-01-25T10:08:32.035Z,36.07
2019-01-25T10:11:02.319Z,35.43
2019-01-25T10:13:38.602Z,35.30
2019-01-25T10:16:09.307Z,38.37
2019-01-25T10:18:39.940Z,34.83
2019-01-25T10:21:10.309Z,38.43
2019-01-25T10:23:44.607Z,38.13
2019-01-25T10:26:15.135Z,34.37
2019-01-25T10:28:45.769Z,35.27
2019-01-25T10:31:16.456Z,33.23
2019-01-25T10:33:46.874Z,41.40
2019-01-25T10:36:17.259Z,38.60
2019-01-25T10:38:49.773Z,40.00
2019-01-25T10:41:20.067Z,42.93
2019-01-25T10:43:52.525Z,43.13
2019-01-25T10:46:26.024Z,38.47
2019-01-25T10:48:56.232Z,37.43
2019-01-25T10:51:27.477Z,35.90
2019-01-25T10:53:59.093Z,37.93
2019-01-25T10:56:29.617Z,34.20
2019-01-25T10:58:59.949Z,37.53
2019-01-25T11:01:30.225Z,37.50
2019-01-25T11:04:03.094Z,36.47
2019-01-25T11:06:33.431Z,32.13
2019-01-25T11:09:07.245Z,34.53
2019-01-25T11:11:41.230Z,34.80
2019-01-25T11:14:14.586Z,35.27
2019-01-25T11:16:45.166Z,33.57
2019-01-25T11:19:18.428Z,35.30
2019-01-25T11:21:49.981Z,37.10
2019-01-25T11:24:20.311Z,37.73
2019-01-25T11:26:50.813Z,33.83
2019-01-25T11:29:22.910Z,32.20
2019-01-25T11:31:57.180Z,34.73
2019-01-25T11:34:33.022Z,40.13
2019-01-25T11:37:01.771Z,33.10
2019-01-25T11:39:32.643Z,37.37
2019-01-25T11:42:03.133Z,30.37
2019-01-25T11:44:36.275Z,31.20
2019-01-25T11:47:06.704Z,28.73
2019-01-25T11:49:38.594Z,32.23
2019-01-25T11:52:08.789Z,30.37
2019-01-25T11:54:38.776Z,28.70
2019-01-25T11:57:08.965Z,28.10
2019-01-25T11:59:39.692Z,29.13
2019-01-25T12:02:09.920Z,27.43
2019-01-25T12:04:40.516Z,28.37
2019-01-25T12:07:10.934Z,24.10
2019-01-25T12:09:40.975Z,23.77
2019-01-25T12:12:10.891Z,26.37
2019-01-25T12:14:42.371Z,28.77
2019-01-25T12:17:13.016Z,24.40
2019-01-25T12:19:43.581Z,23.90
2019-01-25T12:22:13.727Z,22.80
2019-01-25T12:24:43.915Z,27.10
2019-01-25T12:27:14.083Z,24.20
2019-01-25T12:29:44.321Z,27.20
2019-01-25T12:32:14.627Z,24.57
2019-01-25T12:34:45.232Z,22.93
2019-01-25T12:37:15.556Z,23.87
2019-01-25T12:39:46.082Z,25.03
2019-01-25T12:42:16.255Z,24.97
2019-01-25T12:44:46.411Z,22.60
2019-01-25T12:47:17.884Z,25.13
2019-01-25T12:49:48.965Z,27.20
2019-01-25T12:52:19.290Z,22.80
2019-01-25T12:54:50.492Z,20.93
2019-01-25T12:57:20.728Z,21.60
2019-01-25T12:59:51.169Z,20.03
2019-01-25T13:02:21.338Z,21.10
2019-01-25T13:04:51.871Z,23.97
2019-01-25T13:07:22.524Z,22.87
2019-01-25T13:09:55.031Z,23.90
2019-01-25T13:12:25.352Z,20.30
2019-01-25T13:14:55.593Z,22.70
2019-01-25T13:17:25.795Z,25.97
2019-01-25T13:19:58.048Z,25.07
2019-01-25T13:22:28.671Z,21.70
2019-01-25T13:24:59.285Z,25.23
2019-01-25T13:27:30.398Z,23.87
2019-01-25T13:30:00.997Z,26.63
2019-01-25T13:32:31.516Z,25.60
2019-01-25T13:35:01.722Z,25.40
2019-01-25T13:37:31.987Z,23.53
2019-01-25T13:40:02.380Z,22.90
2019-01-25T13:42:34.154Z,25.60
2019-01-25T13:45:04.458Z,24.53
2019-01-25T13:47:36.047Z,23.93
2019-01-25T13:50:07.707Z,23.57
2019-01-25T13:52:37.897Z,21.83
2019-01-25T13:55:12.969Z,24.87
2019-01-25T13:57:42.642Z,22.57
2019-01-25T14:00:27.688Z,22.50
2019-01-25T14:02:58.145Z,20.60
2019-01-25T14:05:31.026Z,21.37
2019-01-25T14:08:01.116Z,20.80
2019-01-25T14:10:36.110Z,20.03
2019-01-25T14:13:06.523Z,19.47
2019-01-25T14:15:37.088Z,19.50
2019-01-25T14:18:07.589Z,23.33
2019-01-25T14:20:38.838Z,16.50
2019-01-25T14:23:09.234Z,20.23
2019-01-25T14:25:40.763Z,23.23
2019-01-25T14:28:11.046Z,22.90
2019-01-25T14:30:44.256Z,21.47
2019-01-25T14:33:19.088Z,21.20
2019-01-25T14:35:52.302Z,23.43
2019-01-25T14:38:22.842Z,21.87
2019-01-25T14:40:55.854Z,23.60
2019-01-25T14:43:26.472Z,22.87
2019-01-25T14:45:57.148Z,22.30
2019-01-25T14:48:27.934Z,21.83
2019-01-25T14:51:17.364Z,21.33
2019-01-25T14:53:50.902Z,22.30
2019-01-25T14:56:19.773Z,20.80
2019-01-25T14:58:50.046Z,22.07
2019-01-25T15:01:20.622Z,21.57
2019-01-25T15:03:50.916Z,22.47
2019-01-25T15:06:21.524Z,22.50
2019-01-25T15:08:52.174Z,20.93
2019-01-25T15:11:22.462Z,21.00
2019-01-25T15:13:52.781Z,25.87
2019-01-25T15:16:23.358Z,22.90
2019-01-25T15:18:53.080Z,19.03
2019-01-25T15:21:23.202Z,19.73
2019-01-25T15:23:53.461Z,18.03
2019-01-25T15:26:23.657Z,23.37
2019-01-25T15:28:53.917Z,22.67
2019-01-25T15:31:27.224Z,24.43
2019-01-25T15:33:58.171Z,22.63
2019-01-25T15:36:28.521Z,22.63
2019-01-25T15:38:58.687Z,22.30
2019-01-25T15:41:28.927Z,22.27
2019-01-25T15:44:00.787Z,25.47
2019-01-25T15:46:32.072Z,24.53
2019-01-25T15:49:03.735Z,22.40
2019-01-25T15:51:33.167Z,21.03
2019-01-25T15:54:03.344Z,18.67
2019-01-25T15:56:34.034Z,21.67
2019-01-25T15:59:04.155Z,21.67
2019-01-25T16:01:34.324Z,19.90
2019-01-25T16:04:04.656Z,22.70
2019-01-25T16:06:34.966Z,19.53
2019-01-25T16:09:07.943Z,26.13
2019-01-25T16:11:43.822Z,20.90
2019-01-25T16:14:18.037Z,20.90
2019-01-25T16:16:46.574Z,21.37
2019-01-25T16:19:16.797Z,21.10
2019-01-25T16:21:48.132Z,24.00
2019-01-25T16:24:18.430Z,17.67
2019-01-25T16:26:49.067Z,22.00
2019-01-25T16:29:19.984Z,23.17
2019-01-25T16:31:50.895Z,21.70
2019-01-25T16:34:21.202Z,18.53
2019-01-25T16:36:51.763Z,22.73
2019-01-25T16:39:22.317Z,23.17
2019-01-25T16:41:52.587Z,23.90
2019-01-25T16:44:25.705Z,20.07
2019-01-25T16:46:55.259Z,22.03
2019-01-25T16:49:25.746Z,22.93
2019-01-25T16:51:56.060Z,22.03
2019-01-25T16:54:26.605Z,22.43
2019-01-25T16:56:57.488Z,27.40
2019-01-25T16:59:28.481Z,23.20
2019-01-25T17:01:59.243Z,24.60
2019-01-25T17:04:29.542Z,19.63
2019-01-25T17:07:00.148Z,22.37
2019-01-25T17:09:31.210Z,22.07
2019-01-25T17:12:03.161Z,23.03
2019-01-25T17:14:33.753Z,24.43
2019-01-25T17:17:03.459Z,21.50
2019-01-25T17:19:33.686Z,21.70
2019-01-25T17:22:04.581Z,23.20
2019-01-25T17:24:34.922Z,29.20
2019-01-25T17:27:05.985Z,18.00
2019-01-25T17:29:36.256Z,21.63
2019-01-25T17:32:06.947Z,21.17
2019-01-25T17:34:37.214Z,22.63
2019-01-25T17:37:07.811Z,23.73
2019-01-25T17:39:38.450Z,22.00
2019-01-25T17:42:08.386Z,20.17
2019-01-25T17:44:45.315Z,22.13
2019-01-25T17:47:15.903Z,25.60
2019-01-25T17:49:47.656Z,25.07
2019-01-25T17:52:18.177Z,21.80
2019-01-25T17:54:48.503Z,24.33
2019-01-25T17:57:19.795Z,23.90
2019-01-25T17:59:50.192Z,24.90
2019-01-25T18:02:20.789Z,21.90
2019-01-25T18:04:50.962Z,24.27
2019-01-25T18:07:23.453Z,25.57
2019-01-25T18:09:53.817Z,25.80
2019-01-25T18:12:24.118Z,27.70
2019-01-25T18:14:54.822Z,24.57
2019-01-25T18:17:26.005Z,21.10
2019-01-25T18:19:56.244Z,26.73
2019-01-25T18:22:26.892Z,24.23
2019-01-25T18:24:57.776Z,22.60
2019-01-25T18:27:29.144Z,24.37
2019-01-25T18:30:00.811Z,24.47
2019-01-25T18:32:31.301Z,24.07
2019-01-25T18:35:01.814Z,22.67
2019-01-25T18:37:32.861Z,23.23
2019-01-25T18:40:03.507Z,24.80
2019-01-25T18:42:33.669Z,22.73
2019-01-25T18:45:04.023Z,24.43
2019-01-25T18:47:36.094Z,28.67
2019-01-25T18:50:11.178Z,26.20
2019-01-25T18:52:41.653Z,25.23
2019-01-25T18:55:14.999Z,22.70
2019-01-25T18:57:45.862Z,22.37
2019-01-25T19:00:18.299Z,21.90
2019-01-25T19:02:48.864Z,23.80
2019-01-25T19:05:19.173Z,24.57
2019-01-25T19:07:50.322Z,25.63
2019-01-25T19:10:24.541Z,21.30
2019-01-25T19:12:55.091Z,19.83
2019-01-25T19:15:29.392Z,19.67
2019-01-25T19:17:59.711Z,23.20
2019-01-25T19:20:30.780Z,20.40
2019-01-25T19:23:01.172Z,21.33
2019-01-25T19:25:32.649Z,21.77
2019-01-25T19:28:03.431Z,20.63
2019-01-25T19:30:36.552Z,25.77
2019-01-25T19:33:10.151Z,19.63
2019-01-25T19:35:40.284Z,19.73
2019-01-25T19:38:18.711Z,15.30
2019-01-25T19:40:49.282Z,15.00
2019-01-25T19:43:21.770Z,15.70
2019-01-25T19:45:51.703Z,15.57
2019-01-25T19:48:23.796Z,14.77
2019-01-25T19:50:53.972Z,15.37
2019-01-25T19:53:24.530Z,15.20
2019-01-25T19:55:54.060Z,15.40
2019-01-25T19:58:27.141Z,15.70
2019-01-25T20:00:57.807Z,14.03
2019-01-25T20:03:28.380Z,16.77
2019-01-25T20:05:58.608Z,14.87
2019-01-25T20:08:30.386Z,15.33
2019-01-25T20:11:02.037Z,24.70
2019-01-25T20:13:32.201Z,16.63
2019-01-25T20:16:04.063Z,18.00
2019-01-25T20:18:34.298Z,13.90
2019-01-25T20:21:20.189Z,16.50
2019-01-25T20:23:51.699Z,11.37
2019-01-25T20:26:21.409Z,16.27
2019-01-25T20:28:53.216Z,14.97
2019-01-25T20:31:23.462Z,15.63
2019-01-25T20:33:55.146Z,15.20
2019-01-25T20:36:26.466Z,14.07
2019-01-25T20:38:57.912Z,15.83
2019-01-25T20:41:28.571Z,15.53
2019-01-25T20:44:01.745Z,16.13
2019-01-25T20:46:32.040Z,14.97
2019-01-25T20:49:01.702Z,16.47
2019-01-25T20:51:31.913Z,15.90
2019-01-25T20:54:04.470Z,19.30
2019-01-25T20:56:35.921Z,22.43
2019-01-25T20:59:06.075Z,19.23
2019-01-25T21:01:37.002Z,16.90
2019-01-25T21:04:07.444Z,17.43
2019-01-25T21:06:38.042Z,17.00
2019-01-25T21:09:11.198Z,18.33
2019-01-25T21:11:41.408Z,16.60
2019-01-25T21:14:11.670Z,17.93
2019-01-25T21:16:41.924Z,21.23
2019-01-25T21:19:12.168Z,15.90
2019-01-25T21:21:42.587Z,18.87
2019-01-25T21:24:13.124Z,18.90
2019-01-25T21:26:44.018Z,17.67
2019-01-25T21:29:14.341Z,18.20
2019-01-25T21:31:44.801Z,17.80
2019-01-25T21:34:15.022Z,19.23
2019-01-25T21:36:46.769Z,17.77
2019-01-25T21:39:17.683Z,17.70
2019-01-25T21:41:48.692Z,17.53
2019-01-25T21:44:19.149Z,16.93
2019-01-25T21:46:49.353Z,18.40
2019-01-25T21:49:19.627Z,16.63
2019-01-25T21:51:49.851Z,17.67
2019-01-25T21:54:20.280Z,18.77
2019-01-25T21:56:50.754Z,17.97
2019-01-25T21:59:21.843Z,23.07
2019-01-25T22:01:52.082Z,17.80
2019-01-25T22:04:23.329Z,16.50
2019-01-25T22:06:53.843Z,18.10
2019-01-25T22:09:24.381Z,16.17
2019-01-25T22:11:54.599Z,17.00
2019-01-25T22:14:26.737Z,16.33
2019-01-25T22:16:57.386Z,17.37
2019-01-25T22:19:27.739Z,16.83
2019-01-25T22:21:58.148Z,16.57
2019-01-25T22:24:28.383Z,16.87
2019-01-25T22:26:58.907Z,18.67
2019-01-25T22:29:30.248Z,16.57
2019-01-25T22:32:01.369Z,15.37
2019-01-25T22:34:31.803Z,21.07
2019-01-25T22:37:04.975Z,18.70
2019-01-25T22:39:35.324Z,16.13
2019-01-25T22:42:05.607Z,15.27
2019-01-25T22:44:36.004Z,14.53
2019-01-25T22:47:06.237Z,15.03
2019-01-25T22:49:36.527Z,16.17
2019-01-25T22:52:08.597Z,17.17
2019-01-25T22:54:38.925Z,13.33
2019-01-25T22:57:09.067Z,14.67
2019-01-25T22:59:39.779Z,15.00
2019-01-25T23:02:10.522Z,12.50
2019-01-25T23:05:10.240Z,14.07
2019-01-25T23:07:40.586Z,12.63
2019-01-25T23:10:18.961Z,14.60
2019-01-25T23:12:49.308Z,16.17
2019-01-25T23:15:19.765Z,14.60
2019-01-25T23:17:50.020Z,15.30
2019-01-25T23:20:20.546Z,14.50
2019-01-25T23:22:50.819Z,12.23
2019-01-25T23:25:20.957Z,12.70
2019-01-25T23:27:51.231Z,13.67
2019-01-25T23:30:21.760Z,12.03
2019-01-25T23:32:52.592Z,14.07
2019-01-25T23:35:22.815Z,13.80
2019-01-25T23:37:53.503Z,14.73
2019-01-25T23:40:23.703Z,12.50
2019-01-25T23:42:54.288Z,15.83
2019-01-25T23:45:25.663Z,15.20
2019-01-25T23:47:55.880Z,12.97
2019-01-25T23:50:26.062Z,13.23
2019-01-25T23:52:56.832Z,10.73
2019-01-25T23:55:27.065Z,15.13
2019-01-25T23:57:58.411Z,13.33
